sensor_id;sensor_type;location;lat;lon;timestamp;pressure;altitude;pressure_sealevel;temperature;humidity
70304;BME280;57712;48.752;11.348;2023-02-11T00:01:15;99470.50;;;-4.06;100.00
70304;BME280;57712;48.752;11.348;2023-02-11T00:03:44;99469.41;;;-4.10;100.00
70304;BME280;57712;48.752;11.348;2023-02-11T00:06:11;99476.66;;;-4.11;100.00
70304;BME280;57712;48.752;11.348;2023-02-11T00:08:38;99475.56;;;-4.10;100.00
70304;BME280;57712;48.752;11.348;2023-02-11T00:11:05;99472.13;;;-4.15;100.00
70304;BME280;57712;48.752;11.348;2023-02-11T00:13:33;99476.69;;;-4.21;100.00
70304;BME280;57712;48.752;11.348;2023-02-11T00:16:05;99472.41;;;-4.22;100.00
70304;BME280;57712;48.752;11.348;2023-02-11T00:18:31;99466.03;;;-4.31;100.00
70304;BME280;57712;48.752;11.348;2023-02-11T00:20:58;99473.50;;;-4.28;100.00
70304;BME280;57712;48.752;11.348;2023-02-11T00:23:25;99471.63;;;-4.27;100.00
70304;BME280;57712;48.752;11.348;2023-02-11T00:25:51;99469.25;;;-4.34;100.00
70304;BME280;57712;48.752;11.348;2023-02-11T00:28:18;99471.41;;;-4.36;100.00
70304;BME280;57712;48.752;11.348;2023-02-11T00:30:53;99484.22;;;-4.38;100.00
70304;BME280;57712;48.752;11.348;2023-02-11T00:33:20;99483.69;;;-4.35;100.00
70304;BME280;57712;48.752;11.348;2023-02-11T00:35:46;99482.91;;;-4.46;100.00
70304;BME280;57712;48.752;11.348;2023-02-11T00:38:13;99481.28;;;-4.42;100.00
70304;BME280;57712;48.752;11.348;2023-02-11T00:40:40;99483.72;;;-4.45;100.00
70304;BME280;57712;48.752;11.348;2023-02-11T00:43:06;99479.97;;;-4.44;100.00
70304;BME280;57712;48.752;11.348;2023-02-11T00:45:33;99474.09;;;-4.51;100.00
70304;BME280;57712;48.752;11.348;2023-02-11T00:48:00;99462.34;;;-4.55;100.00
70304;BME280;57712;48.752;11.348;2023-02-11T00:50:26;99465.00;;;-4.50;100.00
70304;BME280;57712;48.752;11.348;2023-02-11T00:52:53;99477.28;;;-4.49;100.00
70304;BME280;57712;48.752;11.348;2023-02-11T00:55:20;99472.50;;;-4.52;100.00
70304;BME280;57712;48.752;11.348;2023-02-11T00:57:47;99480.00;;;-4.54;100.00
70304;BME280;57712;48.752;11.348;2023-02-11T01:00:13;99470.09;;;-4.54;100.00
70304;BME280;57712;48.752;11.348;2023-02-11T01:02:40;99467.16;;;-4.57;100.00
70304;BME280;57712;48.752;11.348;2023-02-11T01:05:07;99478.94;;;-4.63;100.00
70304;BME280;57712;48.752;11.348;2023-02-11T01:07:33;99466.38;;;-4.63;100.00
70304;BME280;57712;48.752;11.348;2023-02-11T01:10:00;99464.75;;;-4.69;100.00
70304;BME280;57712;48.752;11.348;2023-02-11T01:12:27;99471.44;;;-4.61;100.00
70304;BME280;57712;48.752;11.348;2023-02-11T01:14:53;99462.38;;;-4.66;100.00
70304;BME280;57712;48.752;11.348;2023-02-11T01:17:20;99461.28;;;-4.70;100.00
70304;BME280;57712;48.752;11.348;2023-02-11T01:19:46;99461.03;;;-4.73;100.00
70304;BME280;57712;48.752;11.348;2023-02-11T01:22:13;99460.50;;;-4.70;100.00
70304;BME280;57712;48.752;11.348;2023-02-11T01:24:39;99452.75;;;-4.72;100.00
70304;BME280;57712;48.752;11.348;2023-02-11T01:27:06;99454.13;;;-4.79;100.00
70304;BME280;57712;48.752;11.348;2023-02-11T01:29:33;99445.00;;;-4.73;100.00
70304;BME280;57712;48.752;11.348;2023-02-11T01:32:00;99437.78;;;-4.73;100.00
70304;BME280;57712;48.752;11.348;2023-02-11T01:34:27;99435.94;;;-4.82;100.00
70304;BME280;57712;48.752;11.348;2023-02-11T01:36:58;99433.53;;;-4.84;100.00
70304;BME280;57712;48.752;11.348;2023-02-11T01:39:25;99426.31;;;-4.78;100.00
70304;BME280;57712;48.752;11.348;2023-02-11T01:41:53;99434.88;;;-4.86;100.00
70304;BME280;57712;48.752;11.348;2023-02-11T01:44:35;99427.41;;;-4.89;100.00
70304;BME280;57712;48.752;11.348;2023-02-11T01:47:03;99427.66;;;-4.91;100.00
70304;BME280;57712;48.752;11.348;2023-02-11T01:49:34;99415.88;;;-4.90;100.00
70304;BME280;57712;48.752;11.348;2023-02-11T01:52:06;99403.59;;;-4.76;100.00
70304;BME280;57712;48.752;11.348;2023-02-11T01:54:41;99405.72;;;-4.68;100.00
70304;BME280;57712;48.752;11.348;2023-02-11T01:57:30;99397.66;;;-4.62;100.00
70304;BME280;57712;48.752;11.348;2023-02-11T02:00:12;99391.25;;;-4.56;100.00
70304;BME280;57712;48.752;11.348;2023-02-11T02:05:28;99366.06;;;-4.50;100.00
70304;BME280;57712;48.752;11.348;2023-02-11T02:10:36;99355.31;;;-4.35;100.00
70304;BME280;57712;48.752;11.348;2023-02-11T02:13:05;99360.91;;;-4.31;100.00
70304;BME280;57712;48.752;11.348;2023-02-11T02:15:34;99356.34;;;-4.31;100.00
70304;BME280;57712;48.752;11.348;2023-02-11T02:18:10;99355.25;;;-4.25;100.00
70304;BME280;57712;48.752;11.348;2023-02-11T02:23:33;99365.34;;;-4.12;100.00
70304;BME280;57712;48.752;11.348;2023-02-11T02:34:53;99355.94;;;-4.04;100.00
70304;BME280;57712;48.752;11.348;2023-02-11T02:37:29;99349.25;;;-4.01;100.00
70304;BME280;57712;48.752;11.348;2023-02-11T02:39:58;99352.44;;;-3.99;100.00
70304;BME280;57712;48.752;11.348;2023-02-11T02:42:29;99341.72;;;-3.94;100.00
70304;BME280;57712;48.752;11.348;2023-02-11T02:44:58;99347.56;;;-3.92;100.00
70304;BME280;57712;48.752;11.348;2023-02-11T02:47:24;99346.50;;;-3.96;100.00
70304;BME280;57712;48.752;11.348;2023-02-11T02:49:51;99355.09;;;-3.94;100.00
70304;BME280;57712;48.752;11.348;2023-02-11T02:52:35;99354.53;;;-3.96;100.00
70304;BME280;57712;48.752;11.348;2023-02-11T02:55:10;99351.63;;;-3.95;100.00
70304;BME280;57712;48.752;11.348;2023-02-11T03:00:55;99363.88;;;-3.89;100.00
70304;BME280;57712;48.752;11.348;2023-02-11T03:03:53;99369.00;;;-3.92;100.00
70304;BME280;57712;48.752;11.348;2023-02-11T03:09:15;99369.28;;;-3.99;100.00
70304;BME280;57712;48.752;11.348;2023-02-11T03:11:45;99366.94;;;-4.05;100.00
70304;BME280;57712;48.752;11.348;2023-02-11T03:14:14;99372.81;;;-4.03;100.00
70304;BME280;57712;48.752;11.348;2023-02-11T03:16:44;99370.13;;;-4.09;100.00
70304;BME280;57712;48.752;11.348;2023-02-11T03:19:23;99367.47;;;-4.09;100.00
70304;BME280;57712;48.752;11.348;2023-02-11T03:21:52;99369.63;;;-4.11;100.00
70304;BME280;57712;48.752;11.348;2023-02-11T03:24:32;99373.34;;;-4.07;100.00
70304;BME280;57712;48.752;11.348;2023-02-11T03:27:09;99373.34;;;-4.07;100.00
70304;BME280;57712;48.752;11.348;2023-02-11T03:30:12;99364.56;;;-4.12;100.00
70304;BME280;57712;48.752;11.348;2023-02-11T03:32:44;99362.72;;;-4.17;100.00
70304;BME280;57712;48.752;11.348;2023-02-11T03:35:27;99369.09;;;-4.13;100.00
70304;BME280;57712;48.752;11.348;2023-02-11T03:38:15;99369.13;;;-4.18;100.00
70304;BME280;57712;48.752;11.348;2023-02-11T03:40:44;99368.88;;;-4.16;100.00
70304;BME280;57712;48.752;11.348;2023-02-11T03:43:17;99360.34;;;-4.23;100.00
70304;BME280;57712;48.752;11.348;2023-02-11T03:45:45;99360.63;;;-4.25;100.00
70304;BME280;57712;48.752;11.348;2023-02-11T03:48:18;99373.66;;;-4.13;100.00
70304;BME280;57712;48.752;11.348;2023-02-11T03:50:47;99374.47;;;-4.18;100.00
70304;BME280;57712;48.752;11.348;2023-02-11T03:53:16;99367.50;;;-4.14;100.00
70304;BME280;57712;48.752;11.348;2023-02-11T03:55:45;99371.75;;;-4.08;100.00
70304;BME280;57712;48.752;11.348;2023-02-11T03:58:13;99376.00;;;-4.01;100.00
70304;BME280;57712;48.752;11.348;2023-02-11T04:00:41;99368.50;;;-3.99;100.00
70304;BME280;57712;48.752;11.348;2023-02-11T04:03:09;99368.50;;;-3.99;100.00
70304;BME280;57712;48.752;11.348;2023-02-11T04:05:36;99375.69;;;-3.95;100.00
70304;BME280;57712;48.752;11.348;2023-02-11T04:08:03;99371.09;;;-3.89;100.00
70304;BME280;57712;48.752;11.348;2023-02-11T04:10:30;99375.38;;;-3.88;100.00
70304;BME280;57712;48.752;11.348;2023-02-11T04:12:56;99369.94;;;-3.78;100.00
70304;BME280;57712;48.752;11.348;2023-02-11T04:15:24;99370.47;;;-3.76;100.00
70304;BME280;57712;48.752;11.348;2023-02-11T04:17:51;99383.06;;;-3.77;100.00
70304;BME280;57712;48.752;11.348;2023-02-11T04:20:18;99380.59;;;-3.68;100.00
70304;BME280;57712;48.752;11.348;2023-02-11T04:22:44;99374.66;;;-3.65;100.00
70304;BME280;57712;48.752;11.348;2023-02-11T04:25:11;99383.19;;;-3.53;100.00
70304;BME280;57712;48.752;11.348;2023-02-11T04:27:38;99376.97;;;-3.48;100.00
70304;BME280;57712;48.752;11.348;2023-02-11T04:30:08;99372.91;;;-3.45;100.00
70304;BME280;57712;48.752;11.348;2023-02-11T04:32:35;99383.56;;;-3.35;100.00
70304;BME280;57712;48.752;11.348;2023-02-11T04:35:01;99372.25;;;-3.27;100.00
70304;BME280;57712;48.752;11.348;2023-02-11T04:37:29;99373.81;;;-3.21;100.00
70304;BME280;57712;48.752;11.348;2023-02-11T04:39:55;99374.81;;;-3.17;100.00
70304;BME280;57712;48.752;11.348;2023-02-11T04:42:22;99367.78;;;-3.08;100.00
70304;BME280;57712;48.752;11.348;2023-02-11T04:44:48;99369.38;;;-3.07;100.00
70304;BME280;57712;48.752;11.348;2023-02-11T04:47:15;99364.94;;;-2.93;100.00
70304;BME280;57712;48.752;11.348;2023-02-11T04:49:41;99357.44;;;-2.91;100.00
70304;BME280;57712;48.752;11.348;2023-02-11T04:52:07;99361.19;;;-2.92;100.00
70304;BME280;57712;48.752;11.348;2023-02-11T04:54:34;99367.63;;;-2.93;100.00
70304;BME280;57712;48.752;11.348;2023-02-11T04:57:00;99356.28;;;-2.84;100.00
70304;BME280;57712;48.752;11.348;2023-02-11T04:59:27;99343.16;;;-2.86;100.00
70304;BME280;57712;48.752;11.348;2023-02-11T05:01:53;99347.66;;;-2.81;100.00
70304;BME280;57712;48.752;11.348;2023-02-11T05:04:20;99340.88;;;-2.74;100.00
70304;BME280;57712;48.752;11.348;2023-02-11T05:06:46;99339.06;;;-2.78;100.00
70304;BME280;57712;48.752;11.348;2023-02-11T05:09:13;99348.06;;;-2.69;100.00
70304;BME280;57712;48.752;11.348;2023-02-11T05:11:40;99335.97;;;-2.67;100.00
70304;BME280;57712;48.752;11.348;2023-02-11T05:14:07;99331.28;;;-2.56;100.00
70304;BME280;57712;48.752;11.348;2023-02-11T05:16:33;99325.47;;;-2.63;100.00
70304;BME280;57712;48.752;11.348;2023-02-11T05:19:00;99320.91;;;-2.63;100.00
70304;BME280;57712;48.752;11.348;2023-02-11T05:21:27;99327.59;;;-2.60;100.00
70304;BME280;57712;48.752;11.348;2023-02-11T05:23:53;99328.09;;;-2.58;100.00
70304;BME280;57712;48.752;11.348;2023-02-11T05:26:20;99328.53;;;-2.51;100.00
70304;BME280;57712;48.752;11.348;2023-02-11T05:28:46;99325.78;;;-2.46;100.00
70304;BME280;57712;48.752;11.348;2023-02-11T05:31:13;99325.72;;;-2.41;100.00
70304;BME280;57712;48.752;11.348;2023-02-11T05:33:40;99332.53;;;-2.48;100.00
70304;BME280;57712;48.752;11.348;2023-02-11T05:36:09;99332.41;;;-2.38;100.00
70304;BME280;57712;48.752;11.348;2023-02-11T05:38:37;99341.31;;;-2.43;100.00
70304;BME280;57712;48.752;11.348;2023-02-11T05:41:04;99346.66;;;-2.43;100.00
70304;BME280;57712;48.752;11.348;2023-02-11T05:43:31;99335.31;;;-2.35;100.00
70304;BME280;57712;48.752;11.348;2023-02-11T05:46:00;99330.03;;;-2.40;100.00
70304;BME280;57712;48.752;11.348;2023-02-11T05:48:26;99325.66;;;-2.36;100.00
70304;BME280;57712;48.752;11.348;2023-02-11T05:50:53;99321.69;;;-2.38;100.00
70304;BME280;57712;48.752;11.348;2023-02-11T05:53:20;99325.06;;;-2.33;100.00
70304;BME280;57712;48.752;11.348;2023-02-11T05:55:47;99325.66;;;-2.36;100.00
70304;BME280;57712;48.752;11.348;2023-02-11T05:58:14;99316.44;;;-2.29;100.00
70304;BME280;57712;48.752;11.348;2023-02-11T06:00:41;99310.41;;;-2.40;100.00
70304;BME280;57712;48.752;11.348;2023-02-11T06:03:07;99316.06;;;-2.42;100.00
70304;BME280;57712;48.752;11.348;2023-02-11T06:05:36;99317.25;;;-2.29;100.00
70304;BME280;57712;48.752;11.348;2023-02-11T06:08:03;99336.41;;;-2.36;100.00
70304;BME280;57712;48.752;11.348;2023-02-11T06:10:29;99331.41;;;-2.23;100.00
70304;BME280;57712;48.752;11.348;2023-02-11T06:12:56;99334.88;;;-2.23;100.00
70304;BME280;57712;48.752;11.348;2023-02-11T06:15:23;99342.78;;;-2.32;100.00
70304;BME280;57712;48.752;11.348;2023-02-11T06:17:49;99345.53;;;-2.37;100.00
70304;BME280;57712;48.752;11.348;2023-02-11T06:20:15;99343.34;;;-2.35;100.00
70304;BME280;57712;48.752;11.348;2023-02-11T06:22:42;99346.03;;;-2.35;100.00
70304;BME280;57712;48.752;11.348;2023-02-11T06:25:10;99334.44;;;-2.30;100.00
70304;BME280;57712;48.752;11.348;2023-02-11T06:27:37;99323.94;;;-2.26;100.00
70304;BME280;57712;48.752;11.348;2023-02-11T06:30:05;99318.19;;;-2.20;100.00
70304;BME280;57712;48.752;11.348;2023-02-11T06:32:34;99317.53;;;-2.30;100.00
70304;BME280;57712;48.752;11.348;2023-02-11T06:35:10;99310.50;;;-2.26;100.00
70304;BME280;57712;48.752;11.348;2023-02-11T06:37:38;99309.56;;;-2.36;100.00
70304;BME280;57712;48.752;11.348;2023-02-11T06:40:05;99318.69;;;-2.37;100.00
70304;BME280;57712;48.752;11.348;2023-02-11T06:42:32;99329.44;;;-2.37;100.00
70304;BME280;57712;48.752;11.348;2023-02-11T06:44:58;99349.19;;;-2.27;100.00
70304;BME280;57712;48.752;11.348;2023-02-11T06:47:25;99335.22;;;-2.29;100.00
70304;BME280;57712;48.752;11.348;2023-02-11T06:49:51;99323.13;;;-2.27;100.00
70304;BME280;57712;48.752;11.348;2023-02-11T06:52:17;99327.25;;;-2.35;100.00
70304;BME280;57712;48.752;11.348;2023-02-11T06:54:44;99331.63;;;-2.39;100.00
70304;BME280;57712;48.752;11.348;2023-02-11T06:57:11;99326.50;;;-2.40;100.00
70304;BME280;57712;48.752;11.348;2023-02-11T06:59:37;99322.47;;;-2.38;100.00
70304;BME280;57712;48.752;11.348;2023-02-11T07:02:04;99319.78;;;-2.38;100.00
70304;BME280;57712;48.752;11.348;2023-02-11T07:04:30;99305.19;;;-2.32;100.00
70304;BME280;57712;48.752;11.348;2023-02-11T07:06:57;99297.09;;;-2.26;100.00
70304;BME280;57712;48.752;11.348;2023-02-11T07:09:23;99303.56;;;-2.27;100.00
70304;BME280;57712;48.752;11.348;2023-02-11T07:11:50;99314.78;;;-2.25;100.00
70304;BME280;57712;48.752;11.348;2023-02-11T07:14:17;99311.22;;;-2.21;100.00
70304;BME280;57712;48.752;11.348;2023-02-11T07:16:43;99315.09;;;-2.08;100.00
70304;BME280;57712;48.752;11.348;2023-02-11T07:19:10;99327.28;;;-1.97;100.00
70304;BME280;57712;48.752;11.348;2023-02-11T07:21:36;99336.53;;;-1.89;100.00
70304;BME280;57712;48.752;11.348;2023-02-11T07:24:07;99342.84;;;-1.80;100.00
70304;BME280;57712;48.752;11.348;2023-02-11T07:26:36;99338.72;;;-1.72;100.00
70304;BME280;57712;48.752;11.348;2023-02-11T07:29:03;99333.47;;;-1.64;100.00
70304;BME280;57712;48.752;11.348;2023-02-11T07:31:30;99326.22;;;-1.63;100.00
70304;BME280;57712;48.752;11.348;2023-02-11T07:33:59;99324.19;;;-1.71;100.00
70304;BME280;57712;48.752;11.348;2023-02-11T07:36:27;99328.03;;;-1.78;100.00
70304;BME280;57712;48.752;11.348;2023-02-11T07:38:54;99321.28;;;-1.56;100.00
70304;BME280;57712;48.752;11.348;2023-02-11T07:41:22;99314.22;;;-1.52;100.00
70304;BME280;57712;48.752;11.348;2023-02-11T07:43:50;99301.94;;;-1.58;100.00
70304;BME280;57712;48.752;11.348;2023-02-11T07:46:19;99284.47;;;-1.56;100.00
70304;BME280;57712;48.752;11.348;2023-02-11T07:48:46;99294.00;;;-1.63;100.00
70304;BME280;57712;48.752;11.348;2023-02-11T07:51:16;99295.59;;;-1.62;100.00
70304;BME280;57712;48.752;11.348;2023-02-11T07:53:44;99297.66;;;-1.59;100.00
70304;BME280;57712;48.752;11.348;2023-02-11T07:56:12;99302.69;;;-1.53;100.00
70304;BME280;57712;48.752;11.348;2023-02-11T07:58:39;99302.88;;;-1.49;100.00
70304;BME280;57712;48.752;11.348;2023-02-11T08:01:11;99292.56;;;-1.28;100.00
70304;BME280;57712;48.752;11.348;2023-02-11T08:03:39;99274.97;;;-1.21;100.00
70304;BME280;57712;48.752;11.348;2023-02-11T08:06:13;99299.75;;;-1.24;100.00
70304;BME280;57712;48.752;11.348;2023-02-11T08:08:41;99303.66;;;-1.02;100.00
70304;BME280;57712;48.752;11.348;2023-02-11T08:11:15;99290.22;;;-1.02;100.00
70304;BME280;57712;48.752;11.348;2023-02-11T08:13:43;99304.47;;;-0.88;100.00
70304;BME280;57712;48.752;11.348;2023-02-11T08:16:31;99320.22;;;-0.81;100.00
70304;BME280;57712;48.752;11.348;2023-02-11T08:19:00;99332.16;;;-0.74;100.00
70304;BME280;57712;48.752;11.348;2023-02-11T08:21:27;99331.56;;;-0.57;100.00
70304;BME280;57712;48.752;11.348;2023-02-11T08:23:55;99328.47;;;-0.50;100.00
70304;BME280;57712;48.752;11.348;2023-02-11T08:26:27;99323.41;;;-0.52;100.00
70304;BME280;57712;48.752;11.348;2023-02-11T08:28:56;99338.72;;;-0.52;100.00
70304;BME280;57712;48.752;11.348;2023-02-11T08:31:29;99341.13;;;-0.37;100.00
70304;BME280;57712;48.752;11.348;2023-02-11T08:33:58;99330.91;;;-0.13;100.00
70304;BME280;57712;48.752;11.348;2023-02-11T08:36:36;99326.59;;;0.00;100.00
70304;BME280;57712;48.752;11.348;2023-02-11T08:39:06;99333.50;;;-0.08;100.00
70304;BME280;57712;48.752;11.348;2023-02-11T08:41:46;99330.09;;;0.01;100.00
70304;BME280;57712;48.752;11.348;2023-02-11T08:44:15;99331.16;;;0.36;100.00
70304;BME280;57712;48.752;11.348;2023-02-11T08:46:42;99327.41;;;0.23;100.00
70304;BME280;57712;48.752;11.348;2023-02-11T08:49:08;99309.63;;;0.67;100.00
70304;BME280;57712;48.752;11.348;2023-02-11T08:51:35;99320.53;;;0.62;100.00
70304;BME280;57712;48.752;11.348;2023-02-11T08:54:01;99333.16;;;0.75;100.00
70304;BME280;57712;48.752;11.348;2023-02-11T08:56:28;99329.41;;;0.84;100.00
70304;BME280;57712;48.752;11.348;2023-02-11T08:58:56;99314.00;;;1.25;100.00
70304;BME280;57712;48.752;11.348;2023-02-11T09:01:27;99319.00;;;1.00;100.00
70304;BME280;57712;48.752;11.348;2023-02-11T09:03:55;99306.50;;;1.13;100.00
70304;BME280;57712;48.752;11.348;2023-02-11T09:06:24;99285.50;;;1.41;100.00
70304;BME280;57712;48.752;11.348;2023-02-11T09:08:53;99297.44;;;1.57;100.00
70304;BME280;57712;48.752;11.348;2023-02-11T09:11:24;99330.72;;;1.27;100.00
70304;BME280;57712;48.752;11.348;2023-02-11T09:13:51;99332.69;;;1.12;100.00
70304;BME280;57712;48.752;11.348;2023-02-11T09:16:25;99322.66;;;1.44;100.00
70304;BME280;57712;48.752;11.348;2023-02-11T09:18:52;99315.91;;;1.15;100.00
70304;BME280;57712;48.752;11.348;2023-02-11T09:21:20;99314.31;;;1.23;100.00
70304;BME280;57712;48.752;11.348;2023-02-11T09:23:47;99312.22;;;1.11;100.00
70304;BME280;57712;48.752;11.348;2023-02-11T09:28:43;99309.34;;;1.56;100.00
70304;BME280;57712;48.752;11.348;2023-02-11T09:31:12;99309.88;;;1.67;100.00
70304;BME280;57712;48.752;11.348;2023-02-11T09:33:40;99298.44;;;1.79;100.00
70304;BME280;57712;48.752;11.348;2023-02-11T09:36:17;99287.28;;;1.71;100.00
70304;BME280;57712;48.752;11.348;2023-02-11T09:38:44;99283.63;;;2.37;100.00
70304;BME280;57712;48.752;11.348;2023-02-11T09:44:17;99269.91;;;2.59;100.00
70304;BME280;57712;48.752;11.348;2023-02-11T09:46:49;99275.69;;;2.31;100.00
70304;BME280;57712;48.752;11.348;2023-02-11T09:49:23;99287.16;;;2.11;100.00
70304;BME280;57712;48.752;11.348;2023-02-11T09:52:00;99283.03;;;2.05;100.00
70304;BME280;57712;48.752;11.348;2023-02-11T09:54:37;99288.75;;;2.29;100.00
70304;BME280;57712;48.752;11.348;2023-02-11T09:57:08;99289.41;;;2.09;100.00
70304;BME280;57712;48.752;11.348;2023-02-11T09:59:51;99298.91;;;2.15;100.00
70304;BME280;57712;48.752;11.348;2023-02-11T10:02:35;99310.69;;;2.02;100.00
70304;BME280;57712;48.752;11.348;2023-02-11T10:07:52;99308.28;;;2.26;100.00
70304;BME280;57712;48.752;11.348;2023-02-11T10:13:34;99320.16;;;2.69;100.00
70304;BME280;57712;48.752;11.348;2023-02-11T10:16:29;99309.66;;;2.84;100.00
70304;BME280;57712;48.752;11.348;2023-02-11T10:22:46;99305.03;;;3.53;100.00
70304;BME280;57712;48.752;11.348;2023-02-11T10:24:56;99303.38;;;3.39;100.00
70304;BME280;57712;48.752;11.348;2023-02-11T10:27:30;99311.53;;;3.90;100.00
70304;BME280;57712;48.752;11.348;2023-02-11T10:30:09;99307.75;;;3.53;100.00
70304;BME280;57712;48.752;11.348;2023-02-11T10:32:48;99309.25;;;3.41;100.00
70304;BME280;57712;48.752;11.348;2023-02-11T10:35:19;99305.00;;;3.61;100.00
70304;BME280;57712;48.752;11.348;2023-02-11T10:37:47;99306.06;;;3.69;100.00
70304;BME280;57712;48.752;11.348;2023-02-11T10:40:23;99298.53;;;3.74;100.00
70304;BME280;57712;48.752;11.348;2023-02-11T10:42:56;99302.75;;;3.63;100.00
70304;BME280;57712;48.752;11.348;2023-02-11T10:45:38;99307.25;;;3.59;100.00
70304;BME280;57712;48.752;11.348;2023-02-11T10:53:39;99298.47;;;3.83;100.00
70304;BME280;57712;48.752;11.348;2023-02-11T10:56:07;99291.19;;;4.17;100.00
70304;BME280;57712;48.752;11.348;2023-02-11T10:58:41;99292.59;;;4.02;100.00
70304;BME280;57712;48.752;11.348;2023-02-11T11:01:09;99291.69;;;3.98;100.00
70304;BME280;57712;48.752;11.348;2023-02-11T11:03:51;99283.28;;;4.12;100.00
70304;BME280;57712;48.752;11.348;2023-02-11T11:06:31;99274.44;;;4.69;100.00
70304;BME280;57712;48.752;11.348;2023-02-11T11:08:59;99276.66;;;4.54;100.00
70304;BME280;57712;48.752;11.348;2023-02-11T11:11:26;99267.91;;;4.70;100.00
70304;BME280;57712;48.752;11.348;2023-02-11T11:21:42;99260.22;;;4.84;100.00
70304;BME280;57712;48.752;11.348;2023-02-11T11:24:33;99262.75;;;5.38;100.00
70304;BME280;57712;48.752;11.348;2023-02-11T11:27:05;99252.09;;;5.08;100.00
70304;BME280;57712;48.752;11.348;2023-02-11T11:29:52;99253.00;;;5.37;100.00
70304;BME280;57712;48.752;11.348;2023-02-11T11:32:31;99256.66;;;5.81;100.00
70304;BME280;57712;48.752;11.348;2023-02-11T11:35:02;99256.44;;;5.98;100.00
70304;BME280;57712;48.752;11.348;2023-02-11T11:37:35;99260.25;;;7.13;100.00
70304;BME280;57712;48.752;11.348;2023-02-11T11:40:20;99255.50;;;6.34;100.00
70304;BME280;57712;48.752;11.348;2023-02-11T11:45:29;99247.47;;;6.54;100.00
70304;BME280;57712;48.752;11.348;2023-02-11T11:48:14;99249.25;;;7.25;100.00
70304;BME280;57712;48.752;11.348;2023-02-11T11:50:57;99246.00;;;7.04;100.00
70304;BME280;57712;48.752;11.348;2023-02-11T11:56:27;99242.38;;;8.21;98.86
70304;BME280;57712;48.752;11.348;2023-02-11T11:58:55;99244.53;;;7.92;99.33
70304;BME280;57712;48.752;11.348;2023-02-11T12:01:56;99232.25;;;7.47;98.65
70304;BME280;57712;48.752;11.348;2023-02-11T12:04:43;99237.88;;;7.55;99.29
70304;BME280;57712;48.752;11.348;2023-02-11T12:07:24;99238.88;;;7.66;95.96
70304;BME280;57712;48.752;11.348;2023-02-11T12:10:45;99235.81;;;7.67;94.29
70304;BME280;57712;48.752;11.348;2023-02-11T12:13:07;99219.81;;;7.85;95.22
70304;BME280;57712;48.752;11.348;2023-02-11T12:15:57;99215.22;;;8.08;93.90
70304;BME280;57712;48.752;11.348;2023-02-11T12:21:59;99215.97;;;8.90;91.36
70304;BME280;57712;48.752;11.348;2023-02-11T12:24:37;99210.78;;;8.85;86.08
70304;BME280;57712;48.752;11.348;2023-02-11T12:27:22;99223.13;;;8.75;88.10
70304;BME280;57712;48.752;11.348;2023-02-11T12:30:08;99207.56;;;9.02;85.07
70304;BME280;57712;48.752;11.348;2023-02-11T12:33:00;99206.00;;;8.55;87.96
70304;BME280;57712;48.752;11.348;2023-02-11T12:38:34;99209.41;;;8.49;90.41
70304;BME280;57712;48.752;11.348;2023-02-11T12:47:27;99209.84;;;7.93;100.00
70304;BME280;57712;48.752;11.348;2023-02-11T12:50:24;99198.69;;;8.01;100.00
70304;BME280;57712;48.752;11.348;2023-02-11T12:55:46;99190.53;;;7.63;100.00
70304;BME280;57712;48.752;11.348;2023-02-11T12:58:18;99190.75;;;8.54;95.66
70304;BME280;57712;48.752;11.348;2023-02-11T13:01:05;99192.38;;;7.78;97.92
70304;BME280;57712;48.752;11.348;2023-02-11T13:03:39;99185.00;;;7.24;100.00
70304;BME280;57712;48.752;11.348;2023-02-11T13:06:11;99179.84;;;6.87;100.00
70304;BME280;57712;48.752;11.348;2023-02-11T13:08:43;99181.69;;;6.83;100.00
70304;BME280;57712;48.752;11.348;2023-02-11T13:11:23;99182.19;;;7.05;100.00
70304;BME280;57712;48.752;11.348;2023-02-11T13:13:59;99192.41;;;6.76;100.00
70304;BME280;57712;48.752;11.348;2023-02-11T13:24:40;99179.41;;;6.54;100.00
70304;BME280;57712;48.752;11.348;2023-02-11T13:27:19;99180.63;;;6.41;100.00
70304;BME280;57712;48.752;11.348;2023-02-11T13:35:33;99182.22;;;6.42;100.00
70304;BME280;57712;48.752;11.348;2023-02-11T13:40:44;99180.78;;;6.16;100.00
70304;BME280;57712;48.752;11.348;2023-02-11T13:43:25;99183.63;;;6.07;100.00
70304;BME280;57712;48.752;11.348;2023-02-11T13:46:03;99181.50;;;6.45;100.00
70304;BME280;57712;48.752;11.348;2023-02-11T13:48:35;99185.47;;;6.47;100.00
70304;BME280;57712;48.752;11.348;2023-02-11T13:51:09;99184.56;;;6.43;100.00
70304;BME280;57712;48.752;11.348;2023-02-11T13:53:53;99183.31;;;6.25;100.00
70304;BME280;57712;48.752;11.348;2023-02-11T13:56:38;99178.50;;;6.18;100.00
70304;BME280;57712;48.752;11.348;2023-02-11T14:02:20;99173.41;;;6.17;100.00
70304;BME280;57712;48.752;11.348;2023-02-11T14:13:34;99151.88;;;6.12;100.00
70304;BME280;57712;48.752;11.348;2023-02-11T14:16:14;99152.38;;;6.01;100.00
70304;BME280;57712;48.752;11.348;2023-02-11T14:26:54;99163.25;;;6.01;100.00
70304;BME280;57712;48.752;11.348;2023-02-11T14:29:30;99165.53;;;5.99;100.00
70304;BME280;57712;48.752;11.348;2023-02-11T14:35:27;99169.44;;;5.86;100.00
70304;BME280;57712;48.752;11.348;2023-02-11T14:38:11;99173.38;;;5.89;100.00
70304;BME280;57712;48.752;11.348;2023-02-11T14:43:52;99175.88;;;5.82;100.00
70304;BME280;57712;48.752;11.348;2023-02-11T14:46:22;99185.88;;;5.77;100.00
70304;BME280;57712;48.752;11.348;2023-02-11T14:48:52;99183.13;;;5.90;100.00
70304;BME280;57712;48.752;11.348;2023-02-11T14:51:30;99192.19;;;5.82;100.00
70304;BME280;57712;48.752;11.348;2023-02-11T14:54:06;99188.94;;;5.76;100.00
70304;BME280;57712;48.752;11.348;2023-02-11T14:56:40;99188.22;;;5.91;100.00
70304;BME280;57712;48.752;11.348;2023-02-11T14:59:20;99192.75;;;5.99;100.00